Time;durP1;ratioP1;P1;durP2;ratioP2;P2;SDS_P1;SDS_P2;PMS_P1;PMS_P2;Temp;Humidity;BMP_temperature;BMP_pressure;BME280_temperature;BME280_humidity;BME280_pressure;Samples;Min_cycle;Max_cycle;Signal;HPM_P1;HPM_P2
2022/06/10 00:02:21;;;;;;;1.45;0.20;;;19.20;60.10;;;;;;5072259;28;20047;-64
2022/06/10 00:04:46;;;;;;;1.52;0.52;;;19.20;60.20;;;;;;5072458;28;20044;-71
2022/06/10 00:07:12;;;;;;;0.90;0.20;;;19.20;60.20;;;;;;5072276;28;20508;-72
2022/06/10 00:09:38;;;;;;;2.95;0.30;;;19.20;60.20;;;;;;5072400;28;20123;-64
2022/06/10 00:12:04;;;;;;;1.13;0.35;;;19.20;60.20;;;;;;5073463;28;20041;-69
2022/06/10 00:14:30;;;;;;;1.08;0.20;;;19.20;60.30;;;;;;5073358;28;20036;-71
2022/06/10 00:16:56;;;;;;;1.73;0.30;;;19.20;60.30;;;;;;5055577;28;20393;-71
2022/06/10 00:19:27;;;;;;;0.38;0.10;;;19.20;60.20;;;;;;5073180;28;20500;-70
2022/06/10 00:21:53;;;;;;;0.77;0.40;;;19.10;60.30;;;;;;5072136;28;20048;-71
2022/06/10 00:24:19;;;;;;;1.52;0.45;;;19.10;60.20;;;;;;5072107;28;20044;-71
2022/06/10 00:26:44;;;;;;;2.28;0.30;;;19.10;60.20;;;;;;5072085;28;20451;-71
2022/06/10 00:29:12;;;;;;;1.60;0.30;;;19.10;60.20;;;;;;5071673;28;20036;-72
2022/06/10 00:31:38;;;;;;;1.38;0.35;;;19.10;60.20;;;;;;5072999;28;20059;-71
2022/06/10 00:34:04;;;;;;;1.30;0.20;;;19.10;60.20;;;;;;5072800;28;20040;-66
2022/06/10 00:36:30;;;;;;;1.40;0.28;;;19.10;60.30;;;;;;5071053;28;20072;-71
2022/06/10 00:38:59;;;;;;;1.35;0.20;;;19.10;60.30;;;;;;5071844;28;20158;-71
2022/06/10 00:41:25;;;;;;;1.42;0.20;;;19.10;60.30;;;;;;5072724;28;20537;-71
2022/06/10 00:43:51;;;;;;;3.05;0.30;;;19.00;60.20;;;;;;5071348;28;20036;-70
2022/06/10 00:46:35;;;;;;;0.68;0.20;;;19.10;60.30;;;;;;5071736;28;20036;-72
2022/06/10 00:49:13;;;;;;;1.35;0.28;;;19.00;60.20;;;;;;5071319;28;20052;-72
2022/06/10 00:51:46;;;;;;;1.55;0.30;;;19.10;60.30;;;;;;5071194;28;20057;-71
2022/06/10 00:54:35;;;;;;;0.73;0.20;;;19.00;60.30;;;;;;5071247;28;20044;-70
2022/06/10 00:57:09;;;;;;;1.40;0.30;;;19.00;60.30;;;;;;5071152;28;20071;-72
2022/06/10 00:59:39;;;;;;;1.23;0.20;;;19.00;60.30;;;;;;5071319;28;20032;-70
2022/06/10 01:02:11;;;;;;;1.27;0.30;;;19.00;60.30;;;;;;5071221;28;20051;-64
2022/06/10 01:04:40;;;;;;;1.67;0.35;;;19.00;60.30;;;;;;5072330;28;20047;-71
2022/06/10 01:07:11;;;;;;;2.15;0.30;;;19.00;60.20;;;;;;5071376;28;20040;-71
2022/06/10 01:09:38;;;;;;;1.00;0.38;;;19.00;60.30;;;;;;5070980;28;20036;-70
2022/06/10 01:12:43;;;;;;;1.38;0.40;;;19.00;60.30;;;;;;5070998;28;20044;-72
2022/06/10 01:18:19;;;;;;;0.82;0.20;;;19.00;60.30;;;;;;5130375;27;20785;-70
2022/06/10 01:24:04;;;;;;;1.50;0.35;;;18.90;60.30;;;;;;5130293;27;20350;-67
2022/06/10 01:32:18;;;;;;;2.67;0.40;;;18.90;60.30;;;;;;5130362;27;20836;-69
2022/06/10 01:34:57;;;;;;;1.83;0.30;;;18.90;60.30;;;;;;5129032;28;20495;-71
2022/06/10 01:37:28;;;;;;;1.75;0.47;;;18.90;60.30;;;;;;5129109;28;20044;-70
2022/06/10 01:42:54;;;;;;;1.35;0.25;;;18.90;60.30;;;;;;5130272;27;20694;-70
2022/06/10 01:45:33;;;;;;;2.47;0.22;;;18.90;60.30;;;;;;5129023;28;20047;-70
2022/06/10 01:50:51;;;;;;;1.20;0.30;;;18.80;60.30;;;;;;5152721;27;1167144;-70
2022/06/10 01:53:27;;;;;;;2.60;0.47;;;18.80;60.30;;;;;;5153254;27;20141;-70
2022/06/10 01:56:01;;;;;;;0.98;0.32;;;18.80;60.30;;;;;;5153277;27;20386;-63
2022/06/10 01:58:41;;;;;;;1.40;0.47;;;18.80;60.30;;;;;;5153295;27;20084;-64
2022/06/10 02:01:12;;;;;;;;;;;18.80;60.30;;;;;;5172163;27;20038;-70
2022/06/10 02:03:44;;;;;;;2.58;0.28;;;18.70;60.30;;;;;;5153042;27;19962;-71
2022/06/10 02:06:16;;;;;;;1.25;0.30;;;18.80;60.30;;;;;;5171549;27;20089;-70
2022/06/10 02:08:51;;;;;;;1.30;0.50;;;18.70;60.30;;;;;;5153001;27;20068;-70
2022/06/10 02:11:21;;;;;;;1.42;0.20;;;18.70;60.30;;;;;;5152975;27;20046;-69
2022/06/10 02:16:31;;;;;;;2.30;0.32;;;18.70;60.30;;;;;;5130220;27;20354;-71
2022/06/10 02:19:06;;;;;;;1.10;0.30;;;18.70;60.30;;;;;;5129036;28;20047;-70
2022/06/10 02:21:53;;;;;;;1.45;0.20;;;18.70;60.30;;;;;;5128889;28;20050;-70
2022/06/10 02:24:48;;;;;;;0.85;0.20;;;18.70;60.30;;;;;;5129372;28;20043;-71
2022/06/10 02:27:18;;;;;;;2.85;1.00;;;18.70;60.30;;;;;;5129014;28;20043;-70
2022/06/10 02:29:55;;;;;;;0.82;0.32;;;18.60;60.20;;;;;;5129001;28;20375;-70
2022/06/10 02:32:22;;;;;;;3.05;0.30;;;18.70;60.30;;;;;;5130156;27;20031;-68
2022/06/10 02:34:48;;;;;;;2.55;0.30;;;18.60;60.20;;;;;;5130025;27;20046;-70
2022/06/10 02:42:45;;;;;;;1.25;0.30;;;18.70;60.30;;;;;;5153021;27;1158176;-71
2022/06/10 02:48:25;;;;;;;1.10;0.30;;;18.60;60.20;;;;;;5152412;27;1177855;-71
2022/06/10 02:50:51;;;;;;;1.58;0.20;;;18.60;60.30;;;;;;5153164;27;20061;-70
2022/06/10 02:53:17;;;;;;;1.30;0.30;;;18.50;60.20;;;;;;5153267;27;20434;-70
2022/06/10 02:55:42;;;;;;;1.73;0.30;;;18.60;60.30;;;;;;5153123;27;20042;-71
2022/06/10 03:01:13;;;;;;;0.95;0.40;;;18.50;60.30;;;;;;5153496;27;20385;-71
2022/06/10 03:03:52;;;;;;;1.10;0.30;;;18.50;60.30;;;;;;5153001;27;20031;-71
2022/06/10 03:09:26;;;;;;;2.15;0.30;;;18.50;60.30;;;;;;5089874;27;20413;-71
2022/06/10 03:25:49;;;;;;;1.13;0.20;;;18.50;60.40;;;;;;5130286;27;20427;-70
2022/06/10 03:31:02;;;;;;;0.75;0.20;;;18.40;60.30;;;;;;5130363;27;20687;-70
2022/06/10 03:33:35;;;;;;;0.93;0.30;;;18.50;60.40;;;;;;5129310;28;20040;-70
2022/06/10 03:36:07;;;;;;;0.63;0.22;;;18.40;60.40;;;;;;5128880;28;20039;-64
2022/06/10 03:38:42;;;;;;;1.17;0.43;;;18.40;60.30;;;;;;5129215;28;20077;-71
2022/06/10 03:41:07;;;;;;;0.68;0.40;;;18.40;60.30;;;;;;5128964;28;20047;-70
2022/06/10 03:43:39;;;;;;;1.50;0.22;;;18.40;60.30;;;;;;5128807;28;20039;-71
2022/06/10 03:46:11;;;;;;;0.80;0.40;;;18.40;60.30;;;;;;5130215;27;20035;-70
2022/06/10 03:48:41;;;;;;;2.15;0.57;;;18.40;60.30;;;;;;5128646;28;20040;-64
2022/06/10 03:51:08;;;;;;;;;;;18.40;60.40;;;;;;5129055;28;20543;-70
2022/06/10 03:53:34;;;;;;;0.73;0.20;;;18.40;60.40;;;;;;5128879;28;20279;-71
2022/06/10 03:56:00;;;;;;;1.20;0.25;;;18.30;60.40;;;;;;5130012;28;20039;-70
2022/06/10 03:58:25;;;;;;;1.35;0.43;;;18.30;60.30;;;;;;5128534;28;20566;-71
2022/06/10 04:00:51;;;;;;;1.08;0.40;;;18.40;60.40;;;;;;5129766;28;20072;-69
2022/06/10 04:03:17;;;;;;;2.80;0.35;;;18.40;60.40;;;;;;5128495;28;20114;-70
2022/06/10 04:05:46;;;;;;;1.77;0.40;;;18.30;60.30;;;;;;5129643;28;20043;-71
2022/06/10 04:08:12;;;;;;;4.15;0.55;;;18.40;60.40;;;;;;5128656;28;20118;-70
2022/06/10 04:10:37;;;;;;;2.08;0.40;;;18.40;60.40;;;;;;5128118;28;20051;-71
2022/06/10 04:13:03;;;;;;;1.40;0.40;;;18.30;60.30;;;;;;5128506;28;20039;-69
2022/06/10 04:15:29;;;;;;;1.30;0.60;;;18.30;60.40;;;;;;5129815;28;20071;-69
2022/06/10 04:17:56;;;;;;;2.42;0.40;;;18.40;60.40;;;;;;5129437;28;20046;-70
2022/06/10 04:20:26;;;;;;;3.65;0.40;;;18.40;60.40;;;;;;5128194;28;20043;-69
2022/06/10 04:22:52;;;;;;;1.98;0.28;;;18.40;60.40;;;;;;5127381;28;20071;-71
2022/06/10 04:25:18;;;;;;;1.35;0.30;;;18.30;60.30;;;;;;5127704;28;20078;-70
2022/06/10 04:27:45;;;;;;;1.05;0.20;;;18.30;60.30;;;;;;5128088;28;20043;-70
2022/06/10 04:30:20;;;;;;;1.33;0.20;;;18.40;60.30;;;;;;5127680;27;20043;-70
2022/06/10 04:32:46;;;;;;;1.65;0.20;;;18.40;60.30;;;;;;5127851;28;20051;-69
2022/06/10 04:35:12;;;;;;;2.75;0.57;;;18.40;60.20;;;;;;5129161;28;20117;-68
2022/06/10 04:37:37;;;;;;;2.10;0.50;;;18.40;60.20;;;;;;5127914;28;20503;-69
2022/06/10 04:40:03;;;;;;;1.98;0.50;;;18.40;60.20;;;;;;5127185;28;20081;-70
2022/06/10 04:42:29;;;;;;;1.73;0.32;;;18.40;60.20;;;;;;5113713;28;20046;-69
2022/06/10 04:44:55;;;;;;;2.25;0.60;;;18.40;60.20;;;;;;5115201;28;20036;-73
2022/06/10 04:47:24;;;;;;;3.38;0.73;;;18.40;60.10;;;;;;5115349;28;20403;-69
2022/06/10 04:49:50;;;;;;;1.90;0.38;;;18.40;60.10;;;;;;5115117;28;20039;-71
2022/06/10 04:52:15;;;;;;;1.33;0.40;;;18.40;60.20;;;;;;5115035;28;20050;-69
2022/06/10 04:54:41;;;;;;;1.98;0.30;;;18.40;60.10;;;;;;5113722;28;20538;-69
2022/06/10 04:57:07;;;;;;;1.77;0.40;;;18.40;60.10;;;;;;5113641;28;20036;-70
2022/06/10 04:59:32;;;;;;;1.77;0.38;;;18.40;60.20;;;;;;5113692;28;20335;-69
2022/06/10 05:01:58;;;;;;;0.63;0.47;;;18.40;60.10;;;;;;5113576;28;20316;-63
2022/06/10 05:04:24;;;;;;;1.75;0.60;;;18.40;60.10;;;;;;5096804;28;20040;-71
2022/06/10 05:06:49;;;;;;;2.97;0.40;;;18.40;60.10;;;;;;5114893;28;20023;-71
2022/06/10 05:09:15;;;;;;;2.55;0.60;;;18.40;60.00;;;;;;5113446;28;20040;-71
2022/06/10 05:11:44;;;;;;;3.13;0.50;;;18.40;60.00;;;;;;5113424;28;20515;-71
2022/06/10 05:14:10;;;;;;;1.60;0.32;;;18.50;60.00;;;;;;5114768;28;20390;-71
2022/06/10 05:16:39;;;;;;;1.52;0.35;;;18.50;59.90;;;;;;5113340;28;20031;-70
2022/06/10 05:19:05;;;;;;;1.75;0.40;;;18.50;59.90;;;;;;5113546;28;20046;-70
2022/06/10 05:21:30;;;;;;;2.05;0.30;;;18.50;59.90;;;;;;5114879;28;20375;-71
2022/06/10 05:23:56;;;;;;;2.72;0.50;;;18.60;59.90;;;;;;5114334;28;20043;-65
2022/06/10 05:26:21;;;;;;;2.05;0.40;;;18.50;59.90;;;;;;5114298;28;20123;-71
2022/06/10 05:28:50;;;;;;;1.83;0.52;;;18.50;59.80;;;;;;5113944;28;20060;-70
2022/06/10 05:31:15;;;;;;;2.53;0.68;;;18.50;59.80;;;;;;5113073;28;20043;-72
2022/06/10 05:36:26;;;;;;;1.98;0.30;;;18.60;59.80;;;;;;5114221;28;20372;-63
2022/06/10 05:38:52;;;;;;;1.95;0.30;;;18.60;59.80;;;;;;5112755;28;20185;-70
2022/06/10 05:44:03;;;;;;;1.52;0.35;;;18.60;59.70;;;;;;5112445;28;20044;-74
2022/06/10 05:46:29;;;;;;;1.10;0.30;;;18.60;59.70;;;;;;5108403;28;20123;-73
2022/06/10 05:48:55;;;;;;;1.80;0.30;;;18.60;59.70;;;;;;5109968;28;20130;-69
2022/06/10 05:51:20;;;;;;;3.30;0.32;;;18.70;59.80;;;;;;5109910;28;20036;-69
2022/06/10 05:53:46;;;;;;;3.95;0.30;;;18.70;59.80;;;;;;5108866;28;20039;-69
2022/06/10 05:56:11;;;;;;;1.70;0.30;;;18.70;59.90;;;;;;5111452;28;20032;-69
2022/06/10 05:58:37;;;;;;;1.35;0.40;;;18.70;59.80;;;;;;5109795;28;20321;-69
2022/06/10 06:01:03;;;;;;;1.23;0.20;;;18.70;59.80;;;;;;5102793;28;20050;-70
2022/06/10 06:03:29;;;;;;;2.40;0.40;;;18.70;59.80;;;;;;5103476;28;20481;-69
2022/06/10 06:05:55;;;;;;;1.95;0.40;;;18.70;59.80;;;;;;5094845;28;20487;-69
2022/06/10 06:08:21;;;;;;;3.00;0.40;;;18.80;59.80;;;;;;5126210;27;20040;-69
2022/06/10 06:10:46;;;;;;;2.05;0.43;;;18.80;59.80;;;;;;5104469;28;20050;-69
2022/06/10 06:13:12;;;;;;;3.08;0.50;;;18.80;59.80;;;;;;5104358;28;20040;-68
2022/06/10 06:15:39;;;;;;;2.42;0.30;;;18.80;59.80;;;;;;5104245;28;20028;-68
2022/06/10 06:18:05;;;;;;;1.83;0.32;;;18.90;60.00;;;;;;5103541;27;20040;-69
2022/06/10 06:20:31;;;;;;;4.30;0.60;;;19.00;60.00;;;;;;5098692;28;20683;-69
2022/06/10 06:22:56;;;;;;;3.08;0.40;;;18.90;60.00;;;;;;5104446;28;20038;-69
2022/06/10 06:25:23;;;;;;;2.50;0.20;;;18.90;60.00;;;;;;5104737;28;20433;-69
2022/06/10 06:27:50;;;;;;;2.00;0.30;;;19.00;60.10;;;;;;5102669;28;20032;-69
2022/06/10 06:30:30;;;;;;;3.45;0.30;;;19.00;60.20;;;;;;5101627;28;20494;-69
2022/06/10 06:32:56;;;;;;;1.27;0.35;;;19.00;60.30;;;;;;5104982;28;20065;-68
2022/06/10 06:35:23;;;;;;;1.15;0.20;;;19.00;60.30;;;;;;5077238;28;20043;-69
2022/06/10 06:37:49;;;;;;;2.28;0.30;;;19.00;60.60;;;;;;5094566;28;20455;-69
2022/06/10 06:40:15;;;;;;;1.55;0.65;;;19.00;60.70;;;;;;5103164;28;20040;-70
2022/06/10 06:42:41;;;;;;;32.53;9.05;;;19.00;60.80;;;;;;5102338;28;20140;-69
2022/06/10 06:45:07;;;;;;;50.30;12.57;;;19.00;60.80;;;;;;5103994;28;20043;-69
2022/06/10 06:47:33;;;;;;;34.13;9.68;;;19.00;60.80;;;;;;5088266;28;20419;-67
2022/06/10 06:49:59;;;;;;;27.13;7.75;;;19.10;60.90;;;;;;5106719;27;20165;-68
2022/06/10 06:52:25;;;;;;;25.63;7.30;;;19.10;60.80;;;;;;5109433;27;20438;-67
2022/06/10 06:54:50;;;;;;;29.00;7.90;;;19.10;60.80;;;;;;5091049;28;20036;-68
2022/06/10 06:57:18;;;;;;;35.65;9.35;;;19.10;60.80;;;;;;5087018;28;20455;-68
2022/06/10 06:59:44;;;;;;;26.10;8.38;;;19.10;60.80;;;;;;5092163;28;20047;-67
2022/06/10 07:02:10;;;;;;;27.33;7.40;;;19.10;60.70;;;;;;5091645;28;20051;-68
2022/06/10 07:04:39;;;;;;;29.10;8.38;;;19.10;60.70;;;;;;5089710;28;20044;-68
2022/06/10 07:07:05;;;;;;;28.60;7.15;;;19.10;60.70;;;;;;5091639;28;20034;-67
2022/06/10 07:09:31;;;;;;;22.40;6.95;;;19.10;60.60;;;;;;5090910;28;20054;-68
2022/06/10 07:11:56;;;;;;;29.23;7.75;;;19.10;60.60;;;;;;5091192;28;20492;-70
2022/06/10 07:14:25;;;;;;;26.23;7.45;;;19.10;60.60;;;;;;5088775;28;20659;-70
2022/06/10 07:16:52;;;;;;;25.50;7.53;;;19.20;60.60;;;;;;5088128;28;20048;-70
2022/06/10 07:19:19;;;;;;;22.92;6.40;;;19.20;60.50;;;;;;5087170;28;20055;-71
2022/06/10 07:21:45;;;;;;;21.17;6.88;;;19.20;60.50;;;;;;5089369;28;20062;-71
2022/06/10 07:24:11;;;;;;;26.02;7.80;;;19.20;61.20;;;;;;5087602;28;20047;-71
2022/06/10 07:26:37;;;;;;;23.00;7.15;;;19.30;60.40;;;;;;5083887;27;20043;-71
2022/06/10 07:29:03;;;;;;;18.95;5.97;;;19.20;60.40;;;;;;5085933;28;20059;-71
2022/06/10 07:31:29;;;;;;;22.08;7.18;;;19.30;60.40;;;;;;5084188;28;20051;-70
2022/06/10 07:33:57;;;;;;;20.25;7.10;;;19.30;60.40;;;;;;5090776;28;20035;-70
2022/06/10 07:36:23;;;;;;;23.42;6.38;;;19.30;60.30;;;;;;5090377;28;20036;-70
2022/06/10 07:38:48;;;;;;;18.05;5.85;;;19.40;60.30;;;;;;5085419;28;20048;-70
2022/06/10 07:44:00;;;;;;;19.27;5.45;;;19.40;60.20;;;;;;5094316;28;20067;-70
2022/06/10 07:46:26;;;;;;;15.95;5.60;;;19.50;60.20;;;;;;5090693;28;20655;-71
2022/06/10 07:48:52;;;;;;;18.00;5.63;;;19.50;60.30;;;;;;5091279;28;20163;-68
2022/06/10 07:51:18;;;;;;;17.17;5.30;;;19.50;60.10;;;;;;5084920;28;20031;-70
2022/06/10 07:53:45;;;;;;;16.85;4.85;;;19.60;60.00;;;;;;5093446;28;20155;-69
2022/06/10 07:56:13;;;;;;;17.25;5.25;;;19.60;59.90;;;;;;5093136;28;20493;-70
2022/06/10 07:58:40;;;;;;;19.85;4.85;;;19.70;59.90;;;;;;5087623;28;20728;-72
2022/06/10 08:01:06;;;;;;;13.35;3.92;;;19.70;59.80;;;;;;5087364;28;20043;-72
2022/06/10 08:03:31;;;;;;;12.98;4.55;;;19.70;59.80;;;;;;5089168;28;20117;-72
2022/06/10 08:05:59;;;;;;;16.60;5.28;;;19.70;59.90;;;;;;5088651;28;20035;-70
2022/06/10 08:08:25;;;;;;;15.48;5.03;;;19.70;60.00;;;;;;5086929;28;20024;-71
2022/06/10 08:10:51;;;;;;;11.85;4.10;;;19.60;60.00;;;;;;5067373;28;20101;-70
2022/06/10 08:13:17;;;;;;;12.52;4.63;;;19.60;60.00;;;;;;5072261;28;20663;-72
2022/06/10 08:15:44;;;;;;;13.95;4.55;;;19.60;60.00;;;;;;5096357;28;20050;-70
2022/06/10 08:18:11;;;;;;;11.18;4.43;;;19.60;60.00;;;;;;5104705;27;20560;-69
2022/06/10 08:23:29;;;;;;;14.27;4.55;;;19.60;60.10;;;;;;5089282;27;20052;-70
2022/06/10 08:25:57;;;;;;;13.80;3.97;;;19.60;60.10;;;;;;5091992;28;20044;-72
2022/06/10 08:28:27;;;;;;;13.57;4.18;;;19.60;60.10;;;;;;5092757;28;20104;-71
2022/06/10 08:30:53;;;;;;;12.25;4.13;;;19.60;60.00;;;;;;5090971;28;20775;-71
2022/06/10 08:33:18;;;;;;;10.48;4.68;;;19.60;60.00;;;;;;5093472;27;20052;-71
2022/06/10 08:35:46;;;;;;;11.57;4.68;;;19.70;60.10;;;;;;5103983;27;20048;-72
2022/06/10 08:38:16;;;;;;;12.40;3.80;;;19.60;60.10;;;;;;5096425;28;20500;-72
2022/06/10 08:43:41;;;;;;;10.02;3.63;;;19.60;60.00;;;;;;5070911;28;20394;-74
2022/06/10 08:49:27;;;;;;;11.10;3.08;;;19.60;60.00;;;;;;5095604;27;20556;-73
2022/06/10 08:52:21;;;;;;;13.13;3.92;;;19.70;60.10;;;;;;5087621;28;20043;-73
2022/06/10 08:55:27;;;;;;;11.68;3.30;;;19.60;61.40;;;;;;5086124;28;20073;-74
2022/06/10 08:57:56;;;;;;;12.15;3.58;;;19.70;61.80;;;;;;5089461;28;20048;-75
2022/06/10 09:00:25;;;;;;;7.38;2.05;;;19.70;61.70;;;;;;5088094;28;20048;-73
2022/06/10 09:03:00;;;;;;;12.15;3.83;;;19.70;62.50;;;;;;5085624;28;20067;-73
2022/06/10 09:05:30;;;;;;;8.15;1.85;;;19.80;63.80;;;;;;5089268;28;20044;-74
2022/06/10 09:08:02;;;;;;;11.00;2.58;;;19.80;63.40;;;;;;5116783;27;20062;-74
2022/06/10 09:13:40;;;;;;;12.45;3.00;;;19.80;63.70;;;;;;5098823;27;20463;-74
2022/06/10 09:19:10;;;;;;;13.45;2.70;;;19.80;64.20;;;;;;5119508;27;1177410;-75
2022/06/10 09:25:23;;;;;;;10.82;2.42;;;19.90;64.80;;;;;;5082492;27;20514;-73
2022/06/10 09:27:55;;;;;;;13.32;3.45;;;19.90;64.80;;;;;;5053143;28;20052;-75
2022/06/10 09:30:26;;;;;;;11.20;2.70;;;19.90;64.40;;;;;;5090454;28;20093;-75
2022/06/10 09:33:17;;;;;;;13.27;2.63;;;19.90;64.50;;;;;;5086924;28;20051;-73
2022/06/10 09:36:16;;;;;;;13.80;2.75;;;19.90;64.80;;;;;;5059516;28;20048;-73
2022/06/10 09:58:51;;;;;;;15.15;2.13;;;20.20;65.70;;;;;;5049070;28;20511;-73
2022/06/10 10:04:24;;;;;;;14.35;1.27;;;20.40;65.60;;;;;;5017698;27;3106996;-74
2022/06/10 10:10:09;;;;;;;10.32;1.55;;;20.50;64.50;;;;;;5055773;27;20553;-74
2022/06/10 10:12:59;;;;;;;8.40;1.30;;;20.60;63.80;;;;;;5036461;28;20052;-74
2022/06/10 10:24:15;;;;;;;8.90;1.52;;;20.70;63.00;;;;;;5094045;27;20437;-73
2022/06/10 10:26:42;;;;;;;9.43;1.60;;;20.80;62.50;;;;;;5078135;28;20127;-73
2022/06/10 10:29:15;;;;;;;6.25;0.90;;;20.80;62.40;;;;;;5074569;28;20036;-74
2022/06/10 10:32:03;;;;;;;7.65;1.20;;;20.80;62.40;;;;;;5078549;28;20039;-75
2022/06/10 10:34:36;;;;;;;9.98;0.98;;;20.80;62.40;;;;;;5093141;28;20059;-74
2022/06/10 10:37:05;;;;;;;6.20;1.00;;;20.80;62.20;;;;;;5084441;28;20036;-68
2022/06/10 10:39:35;;;;;;;8.60;1.48;;;20.80;62.00;;;;;;5084139;28;20493;-75
2022/06/10 10:42:13;;;;;;;9.57;1.73;;;20.80;61.90;;;;;;5094707;28;20044;-75
2022/06/10 10:44:44;;;;;;;6.93;1.08;;;20.90;61.80;;;;;;5081913;28;20043;-73
2022/06/10 10:58:18;;;;;;;4.53;1.00;;;20.80;61.60;;;;;;5107398;27;20414;-72
2022/06/10 11:00:52;;;;;;;6.43;0.68;;;20.80;61.70;;;;;;5096994;28;20047;-74
2022/06/10 11:03:28;;;;;;;5.53;0.60;;;20.80;61.70;;;;;;5095219;28;20479;-72
2022/06/10 11:05:56;;;;;;;7.70;1.23;;;20.80;61.70;;;;;;5116283;27;20036;-72
2022/06/10 11:08:26;;;;;;;2.80;0.80;;;20.80;61.80;;;;;;5094662;28;20579;-72
2022/06/10 11:24:44;;;;;;;3.63;1.35;;;20.70;61.70;;;;;;5049848;28;20381;-73
2022/06/10 11:27:28;;;;;;;6.30;1.10;;;20.80;61.30;;;;;;5064569;28;20037;-72
2022/06/10 11:32:55;;;;;;;3.40;0.55;;;20.90;61.60;;;;;;5060773;28;20427;-73
2022/06/10 11:35:27;;;;;;;3.97;0.68;;;20.90;61.60;;;;;;5053076;28;20165;-65
2022/06/10 11:40:56;;;;;;;4.22;0.60;;;20.80;61.60;;;;;;5079954;27;20383;-72
2022/06/10 11:43:29;;;;;;;2.97;0.55;;;20.80;61.70;;;;;;5060049;28;20140;-73
2022/06/10 11:46:02;;;;;;;3.03;0.30;;;20.70;61.80;;;;;;5050246;28;20033;-73
2022/06/10 11:51:15;;;;;;;3.97;0.57;;;20.70;61.80;;;;;;5100562;27;20436;-75
2022/06/10 12:01:52;;;;;;;2.35;0.45;;;20.70;62.00;;;;;;5087315;28;20047;-73
2022/06/10 12:04:25;;;;;;;3.22;0.98;;;20.60;61.80;;;;;;5103293;28;20480;-73
2022/06/10 12:06:56;;;;;;;3.40;0.57;;;20.70;61.80;;;;;;5103479;28;20060;-73
2022/06/10 12:09:32;;;;;;;3.22;0.50;;;20.60;61.80;;;;;;5084052;28;20032;-72
2022/06/10 12:12:04;;;;;;;3.05;0.68;;;20.60;61.80;;;;;;5108476;28;20050;-73
2022/06/10 12:14:48;;;;;;;2.58;0.80;;;20.70;61.80;;;;;;5087100;28;20051;-76
2022/06/10 12:22:37;;;;;;;2.15;0.40;;;20.70;61.70;;;;;;5064762;28;20875;-74
2022/06/10 12:25:15;;;;;;;5.45;0.50;;;20.70;61.70;;;;;;5048474;28;20040;-75
2022/06/10 12:27:52;;;;;;;3.00;0.73;;;20.70;61.60;;;;;;5049864;28;20045;-77
2022/06/10 12:30:25;;;;;;;3.22;0.40;;;20.70;61.60;;;;;;5065387;28;20488;-76
2022/06/10 12:33:00;;;;;;;4.05;0.30;;;20.70;63.30;;;;;;5053066;28;20594;-77
2022/06/10 12:35:34;;;;;;;3.00;0.32;;;20.90;65.30;;;;;;5040164;28;20156;-76
2022/06/10 12:38:10;;;;;;;4.88;0.73;;;21.00;65.40;;;;;;5050507;28;20072;-75
2022/06/10 12:40:59;;;;;;;3.95;0.70;;;21.10;65.60;;;;;;5051544;28;20584;-72
2022/06/10 12:43:29;;;;;;;5.50;0.75;;;21.20;66.20;;;;;;5049018;28;20044;-76
2022/06/10 12:46:03;;;;;;;4.78;0.40;;;21.30;66.20;;;;;;5061616;28;20041;-73
2022/06/10 12:48:33;;;;;;;3.42;0.40;;;21.30;65.40;;;;;;5049145;28;20123;-74
2022/06/10 12:51:38;;;;;;;3.25;0.50;;;21.40;65.30;;;;;;5048891;28;20072;-75
2022/06/10 12:54:32;;;;;;;5.72;0.50;;;21.50;65.50;;;;;;5056194;28;20051;-77
2022/06/10 12:57:28;;;;;;;3.10;0.60;;;21.50;65.40;;;;;;5037905;28;20044;-76
2022/06/10 13:03:22;;;;;;;5.93;0.40;;;21.60;65.20;;;;;;5061354;28;20179;-75
2022/06/10 13:05:49;;;;;;;6.22;0.80;;;21.60;64.90;;;;;;5052689;28;20048;-74
2022/06/10 13:08:40;;;;;;;5.57;0.95;;;21.60;64.70;;;;;;5057568;28;20090;-75
2022/06/10 13:11:09;;;;;;;2.58;0.40;;;21.70;64.80;;;;;;5058627;28;20028;-74
2022/06/10 13:13:36;;;;;;;3.75;0.50;;;21.70;64.40;;;;;;5059912;28;20174;-75
2022/06/10 13:19:27;;;;;;;6.93;0.80;;;21.70;64.20;;;;;;5123301;27;20379;-74
2022/06/10 13:21:52;;;;;;;2.80;0.30;;;21.80;63.90;;;;;;5121732;28;20043;-75
2022/06/10 13:24:19;;;;;;;5.70;0.68;;;21.80;64.50;;;;;;5123211;28;20085;-74
2022/06/10 13:26:45;;;;;;;3.35;0.75;;;21.80;63.70;;;;;;5122381;27;20031;-75
2022/06/10 13:29:16;;;;;;;4.43;0.40;;;21.80;63.60;;;;;;5122950;27;20039;-75
2022/06/10 13:31:49;;;;;;;3.20;0.73;;;21.70;63.60;;;;;;5123369;28;20387;-74
2022/06/10 13:34:27;;;;;;;1.88;0.38;;;21.70;63.70;;;;;;5125192;27;20100;-75
2022/06/10 13:36:59;;;;;;;2.10;0.30;;;21.70;63.80;;;;;;5122269;28;20582;-74
2022/06/10 13:39:33;;;;;;;3.60;0.40;;;21.60;63.70;;;;;;5124546;27;20023;-74
2022/06/10 13:42:00;;;;;;;1.58;0.40;;;21.60;63.60;;;;;;5122503;28;20038;-74
2022/06/10 13:52:56;;;;;;;3.53;0.43;;;21.40;63.80;;;;;;5127140;27;1160544;-73
2022/06/10 13:58:17;;;;;;;1.83;0.60;;;21.50;64.00;;;;;;5134645;27;1156449;-72
2022/06/10 14:00:47;;;;;;;2.42;0.40;;;21.60;63.80;;;;;;5166741;27;20091;-73
2022/06/10 14:03:37;;;;;;;2.40;0.32;;;21.60;63.80;;;;;;5148006;27;20043;-73
2022/06/10 14:06:25;;;;;;;1.23;0.30;;;21.70;63.70;;;;;;5122256;27;20690;-73
2022/06/10 14:09:17;;;;;;;2.70;0.32;;;21.70;63.60;;;;;;5149489;27;20057;-73
2022/06/10 14:11:45;;;;;;;2.53;0.30;;;21.80;63.40;;;;;;5149007;27;20069;-73
2022/06/10 14:20:00;;;;;;;6.63;0.50;;;21.90;63.10;;;;;;5125022;27;20844;-71
2022/06/10 14:22:34;;;;;;;4.45;0.68;;;21.90;63.10;;;;;;5109133;28;20209;-68
2022/06/10 14:36:06;;;;;;;0.82;0.30;;;21.90;63.40;;;;;;5125899;27;20433;-77
2022/06/10 14:38:32;;;;;;;2.97;0.40;;;22.10;62.60;;;;;;5097893;28;20043;-75
2022/06/10 14:41:03;;;;;;;3.70;0.65;;;22.10;62.30;;;;;;5115820;28;20357;-77
2022/06/10 14:43:32;;;;;;;3.25;0.50;;;22.20;62.20;;;;;;5110714;28;20036;-69
2022/06/10 14:48:46;;;;;;;1.70;0.20;;;22.20;62.30;;;;;;5127605;27;20182;-75
2022/06/10 14:56:39;;;;;;;3.67;0.50;;;22.20;62.40;;;;;;5127270;27;20414;-74
2022/06/10 14:59:26;;;;;;;2.65;0.32;;;22.10;62.50;;;;;;5126589;28;20104;-75
2022/06/10 15:01:54;;;;;;;3.58;0.32;;;22.00;62.60;;;;;;5126189;28;20035;-74
2022/06/10 15:04:20;;;;;;;2.58;0.40;;;21.90;62.80;;;;;;5126366;27;20050;-74
2022/06/10 15:06:53;;;;;;;2.13;0.32;;;21.90;63.00;;;;;;5127507;27;20436;-74
2022/06/10 15:09:30;;;;;;;3.53;0.50;;;21.80;63.00;;;;;;5126615;27;20127;-74
2022/06/10 15:12:00;;;;;;;2.13;0.30;;;21.80;63.10;;;;;;5126746;28;20042;-74
2022/06/10 15:14:26;;;;;;;1.58;0.63;;;21.80;63.20;;;;;;5126028;28;20078;-74
2022/06/10 15:16:52;;;;;;;4.15;0.43;;;21.70;63.20;;;;;;5126345;28;20402;-73
2022/06/10 15:19:18;;;;;;;2.08;0.40;;;21.70;63.20;;;;;;5127905;27;20134;-75
2022/06/10 15:21:48;;;;;;;1.85;0.38;;;21.70;63.20;;;;;;5126415;28;20053;-73
2022/06/10 15:24:18;;;;;;;1.73;0.30;;;21.70;63.00;;;;;;5126001;28;20046;-74
2022/06/10 15:26:48;;;;;;;1.85;0.28;;;21.80;62.90;;;;;;5125862;28;20047;-74
2022/06/10 15:29:17;;;;;;;0.75;0.30;;;21.80;62.80;;;;;;5125942;27;20047;-74
2022/06/10 15:31:42;;;;;;;4.10;0.63;;;21.80;62.80;;;;;;5126485;28;20051;-74
2022/06/10 15:34:10;;;;;;;2.40;0.20;;;21.70;62.70;;;;;;5125378;27;20600;-74
2022/06/10 15:42:14;;;;;;;0.95;0.38;;;21.70;62.90;;;;;;5125678;28;20047;-74
2022/06/10 15:44:41;;;;;;;0.93;0.30;;;21.60;62.90;;;;;;5125726;28;20046;-74
2022/06/10 15:47:10;;;;;;;1.98;0.43;;;21.60;62.80;;;;;;5125432;28;20050;-74
2022/06/10 15:49:36;;;;;;;2.65;0.40;;;21.60;62.80;;;;;;5125813;28;20055;-74
2022/06/10 15:57:43;;;;;;;1.25;0.40;;;21.70;62.60;;;;;;5169584;27;20049;-75
2022/06/10 16:00:16;;;;;;;1.38;0.30;;;21.70;62.60;;;;;;5151471;27;20125;-74
2022/06/10 16:02:42;;;;;;;2.00;0.30;;;21.60;62.50;;;;;;5133243;27;20505;-74
2022/06/10 16:05:17;;;;;;;1.42;0.30;;;21.60;62.50;;;;;;5153981;27;20041;-74
2022/06/10 16:07:43;;;;;;;1.85;0.40;;;21.60;62.50;;;;;;5150539;27;20107;-75
2022/06/10 16:10:09;;;;;;;2.42;0.75;;;21.60;62.50;;;;;;5150383;27;20529;-75
2022/06/10 16:13:08;;;;;;;1.35;0.30;;;21.60;62.60;;;;;;5150496;27;20050;-74
2022/06/10 16:15:25;;;;;;;1.50;0.50;;;21.60;62.60;;;;;;5150046;27;20121;-74
2022/06/10 16:17:53;;;;;;;1.17;0.32;;;21.60;62.70;;;;;;5150771;27;20474;-75
2022/06/10 16:20:20;;;;;;;2.05;0.40;;;21.50;62.70;;;;;;5150865;27;20485;-73
2022/06/10 16:22:46;;;;;;;1.60;0.30;;;21.50;62.80;;;;;;5168605;27;20063;-74
2022/06/10 16:25:14;;;;;;;1.13;0.30;;;21.50;63.50;;;;;;5150143;27;20049;-74
2022/06/10 16:27:45;;;;;;;1.77;0.35;;;21.40;62.80;;;;;;5149868;27;20069;-74
2022/06/10 16:30:17;;;;;;;1.15;0.30;;;21.40;62.90;;;;;;5149955;27;20042;-74
2022/06/10 16:32:42;;;;;;;1.23;0.50;;;21.40;63.00;;;;;;5150167;27;20050;-74
2022/06/10 16:35:18;;;;;;;1.58;0.40;;;21.40;63.00;;;;;;5149810;27;20034;-74
2022/06/10 16:37:44;;;;;;;1.13;0.30;;;21.40;63.00;;;;;;5150402;27;20035;-74